createdAt,value
2018-08-10T00:02:22.575Z,0.70
2018-08-10T00:04:49.721Z,0.70
2018-08-10T00:07:16.905Z,0.60
2018-08-10T00:09:44.058Z,0.70
2018-08-10T00:12:11.255Z,0.80
2018-08-10T00:14:38.435Z,0.60
2018-08-10T00:17:05.599Z,0.50
2018-08-10T00:19:32.768Z,0.60
2018-08-10T00:21:59.930Z,0.80
2018-08-10T00:24:27.082Z,0.63
2018-08-10T00:26:54.289Z,0.60
2018-08-10T00:29:21.440Z,0.70
2018-08-10T00:31:48.602Z,0.57
2018-08-10T00:34:15.771Z,0.50
2018-08-10T00:36:42.936Z,0.60
2018-08-10T00:39:12.063Z,0.60
2018-08-10T00:41:39.516Z,0.60
2018-08-10T00:44:06.726Z,0.80
2018-08-10T00:46:33.894Z,0.50
2018-08-10T00:49:01.086Z,0.60
2018-08-10T00:51:28.255Z,0.50
2018-08-10T00:53:55.466Z,0.53
2018-08-10T00:59:27.970Z,0.57
2018-08-10T01:01:55.129Z,0.60
2018-08-10T01:04:22.294Z,0.60
2018-08-10T01:06:49.451Z,0.60
2018-08-10T01:09:16.623Z,0.67
2018-08-10T01:11:43.797Z,0.70
2018-08-10T01:14:10.974Z,0.60
2018-08-10T01:16:38.323Z,0.63
2018-08-10T01:19:05.574Z,0.70
2018-08-10T01:21:33.243Z,0.70
2018-08-10T01:24:00.414Z,0.90
2018-08-10T01:26:27.599Z,0.70
2018-08-10T01:28:54.864Z,1.00
2018-08-10T01:31:21.958Z,0.77
2018-08-10T01:33:49.173Z,0.70
2018-08-10T01:38:49.974Z,0.67
2018-08-10T01:41:17.130Z,0.60
2018-08-10T01:43:44.306Z,0.70
2018-08-10T01:46:11.488Z,0.90
2018-08-10T01:48:38.651Z,0.70
2018-08-10T01:51:05.826Z,0.70
2018-08-10T01:53:33.011Z,0.63
2018-08-10T01:56:00.163Z,0.70
2018-08-10T01:58:27.349Z,0.70
2018-08-10T02:00:54.502Z,0.70
2018-08-10T02:03:21.691Z,0.80
2018-08-10T02:05:48.834Z,0.93
2018-08-10T02:08:16.029Z,0.67
2018-08-10T02:10:43.191Z,0.80
2018-08-10T02:13:10.384Z,0.90
2018-08-10T02:15:37.531Z,0.80
2018-08-10T02:18:04.725Z,1.40
2018-08-10T02:20:31.894Z,0.80
2018-08-10T02:22:59.064Z,0.90
2018-08-10T02:25:26.215Z,0.83
2018-08-10T02:27:53.384Z,1.00
2018-08-10T02:30:21.562Z,0.90
2018-08-10T02:32:49.331Z,1.00
2018-08-10T02:35:16.515Z,0.87
2018-08-10T02:37:43.851Z,1.00
2018-08-10T02:40:15.100Z,1.07
2018-08-10T02:42:43.255Z,1.30
2018-08-10T02:45:10.563Z,1.00
2018-08-10T02:47:37.712Z,0.90
2018-08-10T02:50:04.902Z,0.90
2018-08-10T02:52:32.042Z,0.93
2018-08-10T02:54:59.242Z,1.37
2018-08-10T02:57:26.391Z,1.30
2018-08-10T02:59:53.560Z,1.30
2018-08-10T03:02:20.710Z,0.90
2018-08-10T03:04:47.883Z,1.10
2018-08-10T03:07:15.199Z,0.90
2018-08-10T03:09:42.755Z,1.13
2018-08-10T03:12:11.014Z,1.00
2018-08-10T03:14:38.199Z,1.10
2018-08-10T03:17:05.371Z,1.10
2018-08-10T03:19:32.537Z,1.10
2018-08-10T03:21:59.695Z,1.00
2018-08-10T03:24:26.868Z,1.43
2018-08-10T03:26:54.031Z,1.20
2018-08-10T03:29:21.197Z,1.00
2018-08-10T03:31:48.370Z,1.20
2018-08-10T03:34:15.537Z,0.90
2018-08-10T03:36:42.679Z,1.10
2018-08-10T03:39:11.842Z,1.00
2018-08-10T03:41:39.007Z,1.10
2018-08-10T03:44:06.446Z,0.97
2018-08-10T03:46:33.602Z,1.00
2018-08-10T03:49:00.797Z,1.00
2018-08-10T03:51:27.942Z,1.47
2018-08-10T03:53:55.148Z,1.23
2018-08-10T03:56:22.308Z,1.10
2018-08-10T03:58:49.473Z,1.30
2018-08-10T04:01:16.631Z,1.27
2018-08-10T04:03:45.099Z,0.90
2018-08-10T04:06:12.297Z,0.80
2018-08-10T04:08:39.452Z,0.90
2018-08-10T04:11:06.626Z,0.80
2018-08-10T04:13:33.783Z,1.10
2018-08-10T04:16:03.073Z,1.10
2018-08-10T04:18:30.215Z,1.10
2018-08-10T04:20:57.378Z,1.00
2018-08-10T04:23:24.605Z,0.97
2018-08-10T04:25:51.768Z,1.30
2018-08-10T04:28:18.916Z,1.20
2018-08-10T04:30:46.694Z,1.17
2018-08-10T04:33:13.838Z,1.00
2018-08-10T04:35:40.999Z,1.50
2018-08-10T04:38:08.156Z,0.93
2018-08-10T04:40:35.337Z,1.00
2018-08-10T04:43:02.547Z,1.23
2018-08-10T04:45:29.718Z,0.90
2018-08-10T04:48:02.210Z,1.20
2018-08-10T04:50:29.745Z,0.93
2018-08-10T04:52:56.901Z,0.90
2018-08-10T04:55:24.128Z,1.10
2018-08-10T04:57:51.230Z,1.10
2018-08-10T05:00:18.404Z,1.20
2018-08-10T05:02:45.552Z,1.23
2018-08-10T05:05:12.737Z,1.00
2018-08-10T05:07:40.831Z,0.93
2018-08-10T05:10:08.306Z,1.00
2018-08-10T05:12:35.650Z,0.83
2018-08-10T05:15:02.845Z,1.00
2018-08-10T05:17:30.016Z,0.87
2018-08-10T05:19:57.219Z,1.00
2018-08-10T05:22:24.390Z,1.03
2018-08-10T05:24:51.561Z,1.00
2018-08-10T05:27:18.731Z,1.47
2018-08-10T05:29:45.902Z,1.00
2018-08-10T05:32:13.068Z,1.00
2018-08-10T05:34:40.245Z,1.00
2018-08-10T05:37:07.401Z,0.97
2018-08-10T05:39:34.562Z,1.17
2018-08-10T05:42:01.716Z,1.10
2018-08-10T05:44:28.890Z,1.10
2018-08-10T05:46:56.105Z,1.33
2018-08-10T05:49:23.433Z,1.17
2018-08-10T05:51:50.596Z,1.30
2018-08-10T05:54:17.772Z,1.10
2018-08-10T05:56:44.955Z,1.50
2018-08-10T05:59:12.114Z,1.20
2018-08-10T06:01:39.294Z,1.10
2018-08-10T06:04:06.606Z,1.30
2018-08-10T06:06:33.621Z,1.03
2018-08-10T06:09:00.783Z,1.07
2018-08-10T06:11:27.952Z,1.00
2018-08-10T06:13:55.123Z,1.70
2018-08-10T06:16:22.319Z,1.40
2018-08-10T06:18:49.598Z,1.20
2018-08-10T06:21:16.754Z,1.17
2018-08-10T06:23:43.945Z,1.47
2018-08-10T06:26:11.118Z,1.60
2018-08-10T06:28:38.313Z,1.40
2018-08-10T06:31:05.462Z,1.20
2018-08-10T06:33:32.641Z,1.20
2018-08-10T06:35:59.789Z,1.70
2018-08-10T06:38:26.974Z,1.40
2018-08-10T06:40:54.131Z,1.50
2018-08-10T06:43:21.304Z,1.20
2018-08-10T06:45:48.471Z,1.40
2018-08-10T06:48:16.177Z,1.67
2018-08-10T06:50:43.354Z,1.20
2018-08-10T06:53:10.581Z,1.40
2018-08-10T06:55:37.720Z,1.60
2018-08-10T06:58:04.923Z,1.20
2018-08-10T07:00:32.160Z,1.00
2018-08-10T07:02:59.277Z,1.77
2018-08-10T07:05:26.440Z,1.80
2018-08-10T07:07:53.734Z,1.40
2018-08-10T07:10:20.833Z,1.43
2018-08-10T07:12:48.043Z,1.33
2018-08-10T07:15:15.226Z,1.47
2018-08-10T07:17:42.396Z,1.47
2018-08-10T07:20:10.419Z,1.60
2018-08-10T07:22:37.763Z,1.50
2018-08-10T07:25:05.297Z,1.33
2018-08-10T07:27:32.508Z,1.47
2018-08-10T07:29:59.673Z,1.10
2018-08-10T07:32:26.986Z,1.30
2018-08-10T07:34:54.139Z,1.30
2018-08-10T07:37:21.313Z,1.30
2018-08-10T07:39:48.459Z,1.50
2018-08-10T07:42:15.687Z,1.43
2018-08-10T07:44:42.855Z,1.27
2018-08-10T07:47:10.015Z,1.37
2018-08-10T07:49:37.182Z,1.63
2018-08-10T07:52:04.360Z,1.50
2018-08-10T07:54:31.526Z,1.20
2018-08-10T07:56:58.681Z,1.50
2018-08-10T07:59:25.858Z,1.40
2018-08-10T08:01:53.158Z,1.03
2018-08-10T08:04:20.311Z,1.50
2018-08-10T08:06:47.499Z,1.50
2018-08-10T08:09:15.593Z,1.40
2018-08-10T08:11:43.202Z,1.20
2018-08-10T08:14:10.417Z,1.27
2018-08-10T08:16:37.704Z,1.20
2018-08-10T08:19:04.942Z,1.30
2018-08-10T08:21:33.402Z,1.30
2018-08-10T08:24:00.555Z,1.10
2018-08-10T08:26:28.578Z,1.20
2018-08-10T08:28:55.747Z,1.53
2018-08-10T08:31:22.977Z,1.50
2018-08-10T08:33:55.919Z,1.40
2018-08-10T08:36:23.112Z,1.20
2018-08-10T08:41:06.130Z,1.10
2018-08-10T08:44:45.295Z,1.10
2018-08-10T08:47:12.463Z,1.00
2018-08-10T08:49:39.634Z,0.97
2018-08-10T08:52:06.851Z,1.83
2018-08-10T08:55:06.659Z,0.90
2018-08-10T08:57:34.938Z,1.20
2018-08-10T09:00:03.227Z,1.03
2018-08-10T09:02:30.436Z,1.30
2018-08-10T09:05:03.689Z,1.17
2018-08-10T09:07:31.545Z,1.43
2018-08-10T09:09:59.526Z,1.07
2018-08-10T09:12:26.747Z,1.30
2018-08-10T09:14:58.310Z,1.00
2018-08-10T09:17:25.604Z,1.27
2018-08-10T09:19:52.680Z,1.60
2018-08-10T09:22:19.856Z,1.40
2018-08-10T09:24:47.011Z,1.20
2018-08-10T09:27:14.247Z,1.10
2018-08-10T09:29:41.447Z,1.20
2018-08-10T09:32:08.693Z,1.37
2018-08-10T09:34:35.862Z,1.40
2018-08-10T09:37:03.265Z,1.30
2018-08-10T09:39:30.649Z,1.53
2018-08-10T09:41:58.963Z,1.10
2018-08-10T09:44:26.111Z,1.20
2018-08-10T09:46:53.278Z,1.23
2018-08-10T09:49:20.567Z,1.17
2018-08-10T09:51:47.778Z,1.00
2018-08-10T09:54:14.947Z,1.20
2018-08-10T09:56:42.119Z,1.40
2018-08-10T09:59:09.475Z,1.20
2018-08-10T10:01:42.091Z,0.97
2018-08-10T10:04:09.235Z,1.33
2018-08-10T10:06:36.470Z,1.60
2018-08-10T10:09:06.193Z,1.20
2018-08-10T10:11:33.341Z,1.43
2018-08-10T10:14:00.538Z,1.10
2018-08-10T10:16:27.703Z,1.53
2018-08-10T10:18:54.897Z,1.10
2018-08-10T10:21:22.070Z,1.40
2018-08-10T10:23:49.233Z,1.20
2018-08-10T10:26:18.752Z,1.30
2018-08-10T10:28:45.910Z,1.53
2018-08-10T10:31:13.088Z,1.20
2018-08-10T10:33:40.570Z,1.50
2018-08-10T10:36:07.772Z,1.30
2018-08-10T10:38:34.929Z,1.20
2018-08-10T10:41:02.111Z,1.20
2018-08-10T10:43:29.274Z,1.20
2018-08-10T10:45:56.470Z,1.00
2018-08-10T10:48:23.619Z,1.20
2018-08-10T10:50:50.795Z,1.27
2018-08-10T10:53:18.040Z,1.23
2018-08-10T10:55:45.235Z,1.40
2018-08-10T10:58:12.401Z,1.10
2018-08-10T11:00:39.560Z,1.20
2018-08-10T11:03:06.782Z,1.33
2018-08-10T11:05:33.955Z,1.20
2018-08-10T11:08:01.137Z,1.10
2018-08-10T11:10:28.466Z,0.90
2018-08-10T11:12:55.655Z,1.30
2018-08-10T11:15:22.818Z,1.20
2018-08-10T11:17:49.990Z,1.03
2018-08-10T11:20:17.171Z,1.50
2018-08-10T11:22:44.346Z,1.23
2018-08-10T11:25:12.856Z,1.07
2018-08-10T11:27:40.430Z,1.33
2018-08-10T11:30:08.137Z,1.10
2018-08-10T11:32:35.465Z,1.23
2018-08-10T11:35:02.655Z,1.20
2018-08-10T11:37:29.822Z,1.50
2018-08-10T11:39:57.003Z,0.90
2018-08-10T11:42:24.166Z,1.20
2018-08-10T11:44:51.367Z,1.10
2018-08-10T11:47:18.519Z,1.23
2018-08-10T11:49:45.681Z,1.30
2018-08-10T11:52:12.858Z,1.07
2018-08-10T11:54:40.043Z,1.00
2018-08-10T11:57:07.275Z,1.13
2018-08-10T11:59:34.733Z,1.60
2018-08-10T12:02:02.011Z,1.43
2018-08-10T12:04:29.084Z,1.40
2018-08-10T12:06:56.303Z,1.43
2018-08-10T12:09:23.451Z,1.77
2018-08-10T12:11:50.635Z,1.30
2018-08-10T12:14:17.815Z,1.30
2018-08-10T12:16:45.000Z,1.13
2018-08-10T12:19:12.219Z,1.40
2018-08-10T12:21:39.341Z,1.27
2018-08-10T12:24:06.559Z,1.13
2018-08-10T12:26:33.726Z,1.60
2018-08-10T12:29:00.934Z,1.30
2018-08-10T12:31:28.095Z,1.20
2018-08-10T12:33:55.268Z,1.40
2018-08-10T12:36:22.446Z,1.10
2018-08-10T12:38:49.602Z,1.10
2018-08-10T12:41:16.812Z,1.10
2018-08-10T12:43:44.029Z,1.00
2018-08-10T12:46:11.206Z,1.00
2018-08-10T12:48:38.366Z,0.97
2018-08-10T12:51:05.584Z,1.10
2018-08-10T12:53:32.738Z,1.00
2018-08-10T12:55:59.924Z,0.93
2018-08-10T12:58:27.097Z,1.10
2018-08-10T13:00:54.258Z,1.00
2018-08-10T13:03:21.465Z,1.10
2018-08-10T13:05:48.626Z,1.20
2018-08-10T13:08:15.806Z,1.00
2018-08-10T13:10:43.023Z,1.00
2018-08-10T13:13:10.169Z,1.00
2018-08-10T13:15:37.315Z,1.00
2018-08-10T13:18:04.525Z,1.23
2018-08-10T13:20:31.744Z,1.47
2018-08-10T13:22:58.915Z,1.20
2018-08-10T13:27:59.730Z,1.70
2018-08-10T13:30:26.924Z,1.20
2018-08-10T13:32:54.120Z,1.20
2018-08-10T13:35:21.312Z,1.30
2018-08-10T13:37:48.491Z,1.10
2018-08-10T13:40:15.665Z,0.80
2018-08-10T13:42:42.843Z,1.30
2018-08-10T13:45:10.836Z,1.27
2018-08-10T13:47:38.048Z,1.17
2018-08-10T13:50:05.554Z,1.20
2018-08-10T13:52:32.726Z,1.07
2018-08-10T13:54:59.902Z,1.03
2018-08-10T13:57:27.082Z,0.93
2018-08-10T13:59:54.250Z,0.90
2018-08-10T14:02:21.431Z,1.00
2018-08-10T14:04:48.593Z,1.10
2018-08-10T14:07:15.772Z,0.80
2018-08-10T14:09:42.922Z,1.07
2018-08-10T14:12:10.115Z,0.90
2018-08-10T14:14:37.278Z,0.90
2018-08-10T14:17:04.475Z,0.83
2018-08-10T14:19:31.642Z,0.90
2018-08-10T14:21:58.816Z,0.73
2018-08-10T14:24:26.023Z,0.70
2018-08-10T14:26:53.235Z,0.60
2018-08-10T14:29:20.418Z,0.80
2018-08-10T14:31:47.599Z,0.90
2018-08-10T14:34:14.810Z,0.77
2018-08-10T14:36:41.962Z,0.90
2018-08-10T14:39:10.521Z,1.07
2018-08-10T14:41:37.703Z,0.70
2018-08-10T14:44:05.228Z,0.80
2018-08-10T14:46:32.662Z,0.90
2018-08-10T14:48:59.854Z,0.97
2018-08-10T14:51:27.122Z,0.90
2018-08-10T14:53:54.307Z,0.80
2018-08-10T14:56:21.512Z,0.90
2018-08-10T14:58:48.671Z,0.97
2018-08-10T15:01:15.866Z,0.77
2018-08-10T15:03:43.031Z,0.80
2018-08-10T15:06:10.202Z,0.90
2018-08-10T15:08:37.378Z,0.80
2018-08-10T15:11:04.588Z,0.97
2018-08-10T15:13:31.744Z,0.70
2018-08-10T15:15:58.916Z,0.77
2018-08-10T15:18:26.082Z,0.83
2018-08-10T15:20:53.268Z,0.80
2018-08-10T15:23:20.448Z,1.00
2018-08-10T15:25:47.611Z,0.80
2018-08-10T15:28:14.794Z,0.90
2018-08-10T15:30:41.962Z,1.17
2018-08-10T15:33:09.145Z,1.00
2018-08-10T15:35:36.337Z,1.00
2018-08-10T15:38:03.518Z,0.87
2018-08-10T15:40:30.707Z,0.90
2018-08-10T15:42:57.915Z,1.03
2018-08-10T15:45:25.098Z,0.77
2018-08-10T15:47:52.278Z,0.90
2018-08-10T15:50:19.442Z,0.90
2018-08-10T15:52:46.623Z,0.80
2018-08-10T15:55:14.024Z,0.90
2018-08-10T15:57:41.490Z,0.70
2018-08-10T16:00:11.851Z,0.70
2018-08-10T16:02:39.026Z,1.40
2018-08-10T16:05:07.072Z,0.73
2018-08-10T16:07:34.239Z,0.73
2018-08-10T16:10:01.396Z,1.10
2018-08-10T16:12:28.557Z,0.70
2018-08-10T16:14:55.726Z,0.70
2018-08-10T16:17:22.895Z,0.90
2018-08-10T16:19:50.068Z,0.73
2018-08-10T16:22:17.246Z,0.80
2018-08-10T16:24:44.426Z,0.97
2018-08-10T16:27:12.018Z,0.90
2018-08-10T16:29:39.218Z,0.77
2018-08-10T16:32:06.394Z,1.17
2018-08-10T16:34:33.584Z,0.83
2018-08-10T16:37:00.765Z,0.70
2018-08-10T16:39:27.959Z,0.80
2018-08-10T16:41:55.135Z,0.80
2018-08-10T16:44:22.373Z,0.90
2018-08-10T16:46:49.552Z,0.80
2018-08-10T16:49:16.735Z,1.00
2018-08-10T16:51:43.927Z,0.90
2018-08-10T16:54:11.079Z,0.90
2018-08-10T16:56:38.280Z,0.80
2018-08-10T16:59:05.478Z,0.70
2018-08-10T17:01:32.635Z,0.70
2018-08-10T17:03:59.803Z,1.00
2018-08-10T17:06:26.998Z,0.70
2018-08-10T17:08:54.191Z,0.80
2018-08-10T17:11:21.392Z,0.90
2018-08-10T17:13:48.567Z,0.90
2018-08-10T17:16:15.750Z,0.80
2018-08-10T17:18:42.907Z,1.00
2018-08-10T17:21:10.083Z,1.10
2018-08-10T17:23:37.246Z,1.00
2018-08-10T17:26:04.442Z,0.80
2018-08-10T17:28:31.589Z,1.00
2018-08-10T17:30:58.817Z,1.00
2018-08-10T17:33:25.984Z,0.97
2018-08-10T17:35:53.145Z,0.93
2018-08-10T17:38:20.336Z,0.70
2018-08-10T17:40:47.494Z,0.90
2018-08-10T17:43:14.679Z,0.80
2018-08-10T17:45:41.870Z,0.90
2018-08-10T17:48:09.046Z,1.00
2018-08-10T17:50:36.225Z,1.00
2018-08-10T17:53:03.410Z,0.73
2018-08-10T17:55:30.594Z,0.90
2018-08-10T17:57:57.777Z,0.90
2018-08-10T18:00:27.911Z,0.93
2018-08-10T18:02:55.124Z,0.87
2018-08-10T18:05:22.323Z,0.87
2018-08-10T18:07:49.504Z,0.97
2018-08-10T18:10:17.178Z,0.83
2018-08-10T18:12:44.925Z,0.80
2018-08-10T18:15:12.782Z,1.00
2018-08-10T18:17:40.454Z,1.20
2018-08-10T18:20:11.612Z,1.00
2018-08-10T18:22:38.790Z,1.00
2018-08-10T18:25:06.501Z,1.30
2018-08-10T18:27:33.696Z,0.70
2018-08-10T18:30:00.862Z,0.83
2018-08-10T18:32:28.040Z,0.90
2018-08-10T18:34:55.231Z,0.80
2018-08-10T18:37:22.409Z,0.63
2018-08-10T18:39:49.588Z,1.00
2018-08-10T18:42:16.774Z,0.97
2018-08-10T18:44:43.977Z,0.90
2018-08-10T18:47:11.149Z,0.90
2018-08-10T18:49:38.324Z,0.70
2018-08-10T18:52:05.482Z,0.90
2018-08-10T18:54:32.663Z,0.90
2018-08-10T18:56:59.917Z,0.90
2018-08-10T18:59:27.046Z,1.20
2018-08-10T19:01:57.226Z,1.03
2018-08-10T19:04:24.415Z,1.07
2018-08-10T19:06:51.599Z,1.07
2018-08-10T19:09:18.778Z,1.00
2018-08-10T19:11:45.976Z,1.07
2018-08-10T19:14:13.153Z,1.07
2018-08-10T19:16:40.347Z,1.03
2018-08-10T19:19:07.517Z,1.30
2018-08-10T19:21:34.743Z,1.00
2018-08-10T19:24:01.903Z,1.00
2018-08-10T19:26:29.086Z,1.00
2018-08-10T19:28:56.274Z,1.00
2018-08-10T19:31:23.429Z,1.03
2018-08-10T19:33:50.611Z,1.40
2018-08-10T19:36:17.778Z,1.03
2018-08-10T19:38:45.046Z,1.10
2018-08-10T19:41:12.247Z,1.13
2018-08-10T19:43:39.404Z,1.03
2018-08-10T19:46:06.587Z,1.60
2018-08-10T19:48:33.825Z,1.13
2018-08-10T19:51:00.919Z,1.17
2018-08-10T19:53:28.091Z,0.87
2018-08-10T19:55:55.271Z,0.90
2018-08-10T19:58:22.451Z,1.23
2018-08-10T20:00:49.630Z,1.20
2018-08-10T20:05:56.039Z,1.37
2018-08-10T20:08:23.225Z,1.10
2018-08-10T20:10:50.402Z,1.00
2018-08-10T20:13:17.581Z,0.90
2018-08-10T20:15:44.769Z,1.00
2018-08-10T20:18:11.951Z,1.00
2018-08-10T20:20:39.115Z,1.20
2018-08-10T20:23:06.315Z,0.90
2018-08-10T20:25:33.466Z,0.83
2018-08-10T20:28:00.646Z,1.10
2018-08-10T20:30:27.810Z,1.10
2018-08-10T20:32:55.003Z,0.97
2018-08-10T20:35:22.167Z,1.87
2018-08-10T20:37:49.334Z,0.97
2018-08-10T20:40:17.244Z,0.87
2018-08-10T20:42:44.431Z,1.00
2018-08-10T20:45:11.660Z,0.90
2018-08-10T20:47:38.847Z,0.97
2018-08-10T20:50:07.182Z,1.20
2018-08-10T20:52:34.351Z,1.17
2018-08-10T20:55:01.490Z,1.13
2018-08-10T20:57:28.664Z,1.00
2018-08-10T20:59:55.810Z,1.00
2018-08-10T21:02:23.014Z,1.23
2018-08-10T21:04:50.168Z,1.00
2018-08-10T21:07:17.339Z,1.60
2018-08-10T21:09:44.536Z,1.20
2018-08-10T21:12:11.727Z,1.27
2018-08-10T21:14:38.875Z,1.17
2018-08-10T21:17:06.043Z,1.03
2018-08-10T21:19:33.207Z,1.10
2018-08-10T21:22:00.378Z,1.20
2018-08-10T21:24:27.557Z,1.37
2018-08-10T21:26:54.715Z,1.33
2018-08-10T21:29:21.879Z,1.47
2018-08-10T21:31:49.033Z,1.13
2018-08-10T21:34:16.205Z,1.00
2018-08-10T21:36:43.378Z,1.00
2018-08-10T21:39:12.026Z,1.20
2018-08-10T21:41:39.382Z,1.10
2018-08-10T21:44:06.638Z,1.03
2018-08-10T21:46:33.818Z,1.00
2018-08-10T21:49:07.784Z,0.90
2018-08-10T21:51:41.468Z,1.33
2018-08-10T21:54:08.772Z,1.07
2018-08-10T21:56:35.950Z,1.03
2018-08-10T21:59:03.123Z,1.07
2018-08-10T22:01:30.345Z,1.30
2018-08-10T22:03:57.573Z,1.27
2018-08-10T22:06:24.729Z,1.00
2018-08-10T22:08:51.880Z,1.20
2018-08-10T22:11:19.075Z,1.60
2018-08-10T22:13:51.819Z,1.30
2018-08-10T22:16:24.528Z,1.17
2018-08-10T22:18:57.066Z,1.00
2018-08-10T22:21:24.244Z,1.17
2018-08-10T22:23:51.420Z,1.10
2018-08-10T22:26:18.647Z,1.37
2018-08-10T22:28:45.766Z,1.20
2018-08-10T22:31:12.950Z,1.30
2018-08-10T22:33:40.090Z,1.20
2018-08-10T22:36:07.260Z,1.20
2018-08-10T22:38:34.425Z,1.00
2018-08-10T22:41:01.611Z,1.40
2018-08-10T22:43:28.773Z,1.30
2018-08-10T22:45:55.939Z,0.97
2018-08-10T22:48:23.115Z,1.13
2018-08-10T22:50:50.278Z,1.30
2018-08-10T22:53:17.432Z,1.40
2018-08-10T22:55:44.595Z,1.00
2018-08-10T22:58:11.767Z,1.33
2018-08-10T23:00:38.966Z,1.00
2018-08-10T23:03:06.161Z,1.10
2018-08-10T23:05:33.306Z,1.20
2018-08-10T23:08:00.494Z,1.03
2018-08-10T23:10:27.641Z,1.20
2018-08-10T23:12:54.806Z,1.20
2018-08-10T23:15:21.980Z,1.23
2018-08-10T23:17:49.138Z,1.67
2018-08-10T23:20:16.373Z,1.20
2018-08-10T23:22:43.483Z,1.20
2018-08-10T23:25:12.307Z,1.40
2018-08-10T23:27:39.872Z,1.40
2018-08-10T23:30:08.323Z,1.60
2018-08-10T23:32:35.499Z,1.20
2018-08-10T23:35:02.666Z,1.30
2018-08-10T23:37:29.810Z,1.20
2018-08-10T23:39:56.980Z,1.30
2018-08-10T23:42:24.139Z,1.33
2018-08-10T23:44:51.284Z,1.30
2018-08-10T23:47:18.465Z,1.30
2018-08-10T23:49:45.616Z,1.60
2018-08-10T23:52:12.782Z,1.53
2018-08-10T23:54:39.951Z,1.30
2018-08-10T23:57:07.120Z,1.40
2018-08-10T23:59:34.285Z,1.17
